createdAt,value
2023-04-15T00:00:28.681Z,4.05
2023-04-15T00:01:28.696Z,4.04
2023-04-15T00:02:28.775Z,3.91
2023-04-15T00:03:28.892Z,3.98
2023-04-15T00:04:28.884Z,3.67
2023-04-15T00:05:28.665Z,3.93
2023-04-15T00:06:28.657Z,4.08
2023-04-15T00:07:28.640Z,3.98
2023-04-15T00:08:28.639Z,3.88
2023-04-15T00:09:28.633Z,3.70
2023-04-15T00:10:28.642Z,3.69
2023-04-15T00:11:28.636Z,3.62
2023-04-15T00:12:28.605Z,3.53
2023-04-15T00:13:28.613Z,3.63
2023-04-15T00:14:28.592Z,3.58
2023-04-15T00:15:28.599Z,3.62
2023-04-15T00:16:28.620Z,3.29
2023-04-15T00:17:28.594Z,3.30
2023-04-15T00:18:28.593Z,3.26
2023-04-15T00:19:28.621Z,3.40
2023-04-15T00:20:28.639Z,3.41
2023-04-15T00:21:28.639Z,3.22
2023-04-15T00:22:28.665Z,3.27
2023-04-15T00:23:28.714Z,3.42
2023-04-15T00:24:28.739Z,3.24
2023-04-15T00:25:28.747Z,3.47
2023-04-15T00:26:28.755Z,3.32
2023-04-15T00:27:28.791Z,3.33
2023-04-15T00:28:28.839Z,3.42
2023-04-15T00:29:28.859Z,3.24
2023-04-15T00:30:28.867Z,3.17
2023-04-15T00:31:28.927Z,3.20
2023-04-15T00:32:28.929Z,3.09
2023-04-15T00:33:28.953Z,3.09
2023-04-15T00:34:28.983Z,3.34
2023-04-15T00:35:29.006Z,3.28
2023-04-15T00:36:29.022Z,3.21
2023-04-15T00:37:29.042Z,3.23
2023-04-15T00:38:29.059Z,3.22
2023-04-15T00:39:29.103Z,3.24
2023-04-15T00:40:29.115Z,3.18
2023-04-15T00:41:29.129Z,3.16
2023-04-15T00:42:29.156Z,3.12
2023-04-15T00:43:29.200Z,3.03
2023-04-15T00:44:29.237Z,3.27
2023-04-15T00:45:29.304Z,3.21
2023-04-15T00:46:29.254Z,3.15
2023-04-15T00:47:29.290Z,3.13
2023-04-15T00:48:29.305Z,3.21
2023-04-15T00:49:29.314Z,3.19
2023-04-15T00:50:29.336Z,3.16
2023-04-15T00:51:29.373Z,3.10
2023-04-15T00:52:29.397Z,2.88
2023-04-15T00:53:29.444Z,3.02
2023-04-15T00:54:29.440Z,3.02
2023-04-15T00:55:29.453Z,3.08
2023-04-15T00:56:29.474Z,2.97
2023-04-15T00:57:29.498Z,3.01
2023-04-15T00:58:29.533Z,2.97
2023-04-15T00:59:29.539Z,2.93
2023-04-15T01:00:29.566Z,2.92
2023-04-15T01:01:29.597Z,2.95
2023-04-15T01:02:29.792Z,2.95
2023-04-15T01:03:29.838Z,2.96
2023-04-15T01:04:29.787Z,2.99
2023-04-15T01:05:29.673Z,2.84
2023-04-15T01:06:29.699Z,2.78
2023-04-15T01:07:29.705Z,2.65
2023-04-15T01:08:29.729Z,2.67
2023-04-15T01:09:29.800Z,2.82
2023-04-15T01:10:29.778Z,2.66
2023-04-15T01:11:29.804Z,2.74
2023-04-15T01:12:29.857Z,2.73
2023-04-15T01:13:29.841Z,2.68
2023-04-15T01:14:29.869Z,2.46
2023-04-15T01:15:29.911Z,2.50
2023-04-15T01:16:30.008Z,2.56
2023-04-15T01:17:30.014Z,2.48
2023-04-15T01:18:29.955Z,2.45
2023-04-15T01:19:29.983Z,2.43
2023-04-15T01:20:29.984Z,2.44
2023-04-15T01:21:30.041Z,2.45
2023-04-15T01:22:30.033Z,2.38
2023-04-15T01:23:30.057Z,2.47
2023-04-15T01:24:30.080Z,2.30
2023-04-15T01:25:30.085Z,2.36
2023-04-15T01:26:30.121Z,2.56
2023-04-15T01:27:30.136Z,2.32
2023-04-15T01:28:30.163Z,2.16
2023-04-15T01:29:30.175Z,2.18
2023-04-15T01:30:30.195Z,2.30
2023-04-15T01:31:30.237Z,2.36
2023-04-15T01:32:30.254Z,2.22
2023-04-15T01:33:30.269Z,2.24
2023-04-15T01:34:30.303Z,2.16
2023-04-15T01:35:30.334Z,2.22
2023-04-15T01:36:30.315Z,2.31
2023-04-15T01:37:30.371Z,2.10
2023-04-15T01:38:30.366Z,2.13
2023-04-15T01:39:30.389Z,2.12
2023-04-15T01:40:30.428Z,2.23
2023-04-15T01:41:30.436Z,2.13
2023-04-15T01:42:30.457Z,2.15
2023-04-15T01:43:30.488Z,2.07
2023-04-15T01:44:30.514Z,2.04
2023-04-15T01:45:30.541Z,2.00
2023-04-15T01:46:30.582Z,2.13
2023-04-15T01:47:30.576Z,2.09
2023-04-15T01:48:30.601Z,2.00
2023-04-15T01:49:30.617Z,1.87
2023-04-15T01:50:31.145Z,1.92
2023-04-15T01:51:30.662Z,2.06
2023-04-15T01:52:30.688Z,1.89
2023-04-15T01:53:30.714Z,1.88
2023-04-15T01:54:30.730Z,1.95
2023-04-15T01:55:30.759Z,1.91
2023-04-15T01:56:30.782Z,2.01
2023-04-15T01:57:30.797Z,2.03
2023-04-15T01:58:30.829Z,1.89
2023-04-15T01:59:30.857Z,1.78
2023-04-15T02:00:30.878Z,1.84
2023-04-15T02:01:30.987Z,1.82
2023-04-15T02:02:31.067Z,1.95
2023-04-15T02:03:31.035Z,1.81
2023-04-15T02:04:30.947Z,1.80
2023-04-15T02:05:30.996Z,1.78
2023-04-15T02:06:30.989Z,1.76
2023-04-15T02:07:31.013Z,1.63
2023-04-15T02:08:31.037Z,1.59
2023-04-15T02:09:31.075Z,1.69
2023-04-15T02:10:31.101Z,1.64
2023-04-15T02:11:31.102Z,1.79
2023-04-15T02:12:31.120Z,1.77
2023-04-15T02:13:31.161Z,1.78
2023-04-15T02:14:31.184Z,1.73
2023-04-15T02:15:31.188Z,1.66
2023-04-15T02:16:31.227Z,1.64
2023-04-15T02:17:31.242Z,1.68
2023-04-15T02:18:31.275Z,1.53
2023-04-15T02:19:31.292Z,1.63
2023-04-15T02:20:31.323Z,1.60
2023-04-15T02:21:31.400Z,1.51
2023-04-15T02:22:31.348Z,1.51
2023-04-15T02:23:31.416Z,1.51
2023-04-15T02:24:31.398Z,1.48
2023-04-15T02:25:31.424Z,1.53
2023-04-15T02:26:31.437Z,1.44
2023-04-15T02:27:31.459Z,1.56
2023-04-15T02:28:31.484Z,1.45
2023-04-15T02:29:31.528Z,1.47
2023-04-15T02:30:31.545Z,1.50
2023-04-15T02:31:31.575Z,1.59
2023-04-15T02:32:31.602Z,1.47
2023-04-15T02:33:31.606Z,1.36
2023-04-15T02:34:31.629Z,1.37
2023-04-15T02:35:31.647Z,1.57
2023-04-15T02:36:31.647Z,1.51
2023-04-15T02:37:31.681Z,1.49
2023-04-15T02:38:31.707Z,1.47
2023-04-15T02:39:31.726Z,1.44
2023-04-15T02:40:31.763Z,1.40
2023-04-15T02:41:31.757Z,1.46
2023-04-15T02:42:31.800Z,1.34
2023-04-15T02:43:31.808Z,1.51
2023-04-15T02:44:31.849Z,1.30
2023-04-15T02:45:31.880Z,1.36
2023-04-15T02:46:32.072Z,1.44
2023-04-15T02:47:31.926Z,1.50
2023-04-15T02:48:31.932Z,1.37
2023-04-15T02:49:31.972Z,1.47
2023-04-15T02:50:31.992Z,1.34
2023-04-15T02:51:32.032Z,1.30
2023-04-15T02:52:32.030Z,1.42
2023-04-15T02:53:32.060Z,1.41
2023-04-15T02:54:32.085Z,1.36
2023-04-15T02:55:32.133Z,1.36
2023-04-15T02:56:32.142Z,1.35
2023-04-15T02:57:32.174Z,1.36
2023-04-15T02:58:32.196Z,1.44
2023-04-15T02:59:32.218Z,1.38
2023-04-15T03:00:32.259Z,1.35
2023-04-15T03:01:32.307Z,1.21
2023-04-15T03:02:32.371Z,1.29
2023-04-15T03:03:32.447Z,1.27
2023-04-15T03:04:32.346Z,1.22
2023-04-15T03:05:32.407Z,1.27
2023-04-15T03:06:32.406Z,1.18
2023-04-15T03:07:32.434Z,1.26
2023-04-15T03:08:32.464Z,1.32
2023-04-15T03:09:32.493Z,1.32
2023-04-15T03:10:32.514Z,1.36
2023-04-15T03:11:32.899Z,1.25
2023-04-15T03:12:32.562Z,1.34
2023-04-15T03:13:32.593Z,1.39
2023-04-15T03:14:32.631Z,1.30
2023-04-15T03:15:32.656Z,1.20
2023-04-15T03:16:32.675Z,1.17
2023-04-15T03:17:32.694Z,1.22
2023-04-15T03:18:32.721Z,1.25
2023-04-15T03:19:32.747Z,1.18
2023-04-15T03:20:32.829Z,1.13
2023-04-15T03:21:32.796Z,1.18
2023-04-15T03:22:32.824Z,1.28
2023-04-15T03:23:32.913Z,1.32
2023-04-15T03:24:32.878Z,1.29
2023-04-15T03:25:32.913Z,1.22
2023-04-15T03:26:32.976Z,1.24
2023-04-15T03:27:32.954Z,1.24
2023-04-15T03:28:33.002Z,1.28
2023-04-15T03:29:33.016Z,1.21
2023-04-15T03:30:33.044Z,1.24
2023-04-15T03:31:33.089Z,1.20
2023-04-15T03:32:33.145Z,1.23
2023-04-15T03:33:33.126Z,1.09
2023-04-15T03:34:33.160Z,1.17
2023-04-15T03:35:33.190Z,1.27
2023-04-15T03:36:33.220Z,1.16
2023-04-15T03:37:33.237Z,1.25
2023-04-15T03:38:33.253Z,1.27
2023-04-15T03:39:33.287Z,1.27
2023-04-15T03:40:33.310Z,1.20
2023-04-15T03:41:33.335Z,1.24
2023-04-15T03:42:33.350Z,1.28
2023-04-15T03:43:33.386Z,1.32
2023-04-15T03:44:33.397Z,1.26
2023-04-15T03:45:33.429Z,1.15
2023-04-15T03:46:33.486Z,1.11
2023-04-15T03:47:33.540Z,1.14
2023-04-15T03:48:33.519Z,1.26
2023-04-15T03:49:33.530Z,1.28
2023-04-15T03:50:33.563Z,1.33
2023-04-15T03:51:33.610Z,1.20
2023-04-15T03:52:33.605Z,1.30
2023-04-15T03:53:33.630Z,1.39
2023-04-15T03:54:33.734Z,1.19
2023-04-15T03:55:33.708Z,1.21
2023-04-15T03:56:33.719Z,1.21
2023-04-15T03:57:33.750Z,1.28
2023-04-15T03:58:33.775Z,1.20
2023-04-15T03:59:33.894Z,1.19
2023-04-15T04:00:33.812Z,1.24
2023-04-15T04:01:33.862Z,1.31
2023-04-15T04:02:33.974Z,1.27
2023-04-15T04:03:34.064Z,1.29
2023-04-15T04:04:33.996Z,1.26
2023-04-15T04:05:33.968Z,1.31
2023-04-15T04:06:33.997Z,1.24
2023-04-15T04:07:34.008Z,1.26
2023-04-15T04:08:34.066Z,1.26
2023-04-15T04:09:34.085Z,1.29
2023-04-15T04:10:34.103Z,1.36
2023-04-15T04:11:34.125Z,1.27
2023-04-15T04:12:34.168Z,1.24
2023-04-15T04:13:34.206Z,1.18
2023-04-15T04:14:34.253Z,1.12
2023-04-15T04:15:34.286Z,1.22
2023-04-15T04:16:34.329Z,1.21
2023-04-15T04:17:34.316Z,1.21
2023-04-15T04:18:34.323Z,1.12
2023-04-15T04:19:34.390Z,1.16
2023-04-15T04:20:34.382Z,1.17
2023-04-15T04:21:34.387Z,1.18
2023-04-15T04:22:34.434Z,1.15
2023-04-15T04:23:34.462Z,1.14
2023-04-15T04:24:34.512Z,1.07
2023-04-15T04:25:34.586Z,1.10
2023-04-15T04:26:34.555Z,1.11
2023-04-15T04:27:34.567Z,1.07
2023-04-15T04:28:34.611Z,1.04
2023-04-15T04:29:34.765Z,1.06
2023-04-15T04:30:34.666Z,1.13
2023-04-15T04:31:34.712Z,1.11
2023-04-15T04:32:34.708Z,1.14
2023-04-15T04:33:34.775Z,1.10
2023-04-15T04:34:34.794Z,1.07
2023-04-15T04:35:34.848Z,1.17
2023-04-15T04:36:34.833Z,1.09
2023-04-15T04:37:34.888Z,1.06
2023-04-15T04:38:34.899Z,1.17
2023-04-15T04:39:34.959Z,1.09
2023-04-15T04:40:34.969Z,1.12
2023-04-15T04:41:34.997Z,1.05
2023-04-15T04:42:36.051Z,1.06
2023-04-15T04:43:35.024Z,1.04
2023-04-15T04:44:35.066Z,1.02
2023-04-15T04:45:35.120Z,1.05
2023-04-15T04:46:35.120Z,1.00
2023-04-15T04:47:35.156Z,1.00
2023-04-15T04:48:35.188Z,0.98
2023-04-15T04:49:35.241Z,0.89
2023-04-15T04:50:35.258Z,0.92
2023-04-15T04:51:35.299Z,1.03
2023-04-15T04:52:35.321Z,0.94
2023-04-15T04:53:35.336Z,0.97
2023-04-15T04:54:35.384Z,0.96
2023-04-15T04:55:35.406Z,0.92
2023-04-15T04:56:35.447Z,1.01
2023-04-15T04:57:35.472Z,1.00
2023-04-15T04:58:35.534Z,0.95
2023-04-15T04:59:35.525Z,1.05
2023-04-15T05:00:35.588Z,0.98
2023-04-15T05:01:35.643Z,0.98
2023-04-15T05:02:35.800Z,1.00
2023-04-15T05:03:35.725Z,1.04
2023-04-15T05:04:35.694Z,0.97
2023-04-15T05:05:35.722Z,0.99
2023-04-15T05:06:35.739Z,1.01
2023-04-15T05:07:35.781Z,1.07
2023-04-15T05:08:35.805Z,0.94
2023-04-15T05:09:35.826Z,0.87
2023-04-15T05:10:35.875Z,0.89
2023-04-15T05:11:35.916Z,0.94
2023-04-15T05:12:35.929Z,0.93
2023-04-15T05:13:35.966Z,0.91
2023-04-15T05:14:35.993Z,1.00
2023-04-15T05:15:36.020Z,0.99
2023-04-15T05:16:36.062Z,1.06
2023-04-15T05:17:36.130Z,1.07
2023-04-15T05:18:36.096Z,1.04
2023-04-15T05:19:36.123Z,1.01
2023-04-15T05:20:36.156Z,0.96
2023-04-15T05:21:38.256Z,0.98
2023-04-15T05:22:36.179Z,0.98
2023-04-15T05:23:36.181Z,1.07
2023-04-15T05:24:36.169Z,1.05
2023-04-15T05:25:36.176Z,1.00
2023-04-15T05:26:36.158Z,1.01
2023-04-15T05:27:36.168Z,0.99
2023-04-15T05:28:36.146Z,0.97
2023-04-15T05:29:36.137Z,1.05
2023-04-15T05:30:36.122Z,1.07
2023-04-15T05:31:36.239Z,1.02
2023-04-15T05:32:36.116Z,1.01
2023-04-15T05:33:36.094Z,0.98
2023-04-15T05:34:36.090Z,1.00
2023-04-15T05:35:36.093Z,0.94
2023-04-15T05:36:36.098Z,0.98
2023-04-15T05:37:36.070Z,1.04
2023-04-15T05:38:36.077Z,0.99
2023-04-15T05:39:36.080Z,1.05
2023-04-15T05:40:36.066Z,0.94
2023-04-15T05:41:36.047Z,1.16
2023-04-15T05:42:36.053Z,1.11
2023-04-15T05:43:36.037Z,1.16
2023-04-15T05:44:36.031Z,1.09
2023-04-15T05:45:36.018Z,1.16
2023-04-15T05:46:36.138Z,1.17
2023-04-15T05:47:36.038Z,1.17
2023-04-15T05:48:36.010Z,1.26
2023-04-15T05:49:36.005Z,1.12
2023-04-15T05:50:35.982Z,1.14
2023-04-15T05:51:35.997Z,1.17
2023-04-15T05:52:35.994Z,1.23
2023-04-15T05:53:35.964Z,1.23
2023-04-15T05:54:35.972Z,1.27
2023-04-15T05:55:35.947Z,1.29
2023-04-15T05:56:35.948Z,1.23
2023-04-15T05:57:35.946Z,1.24
2023-04-15T05:58:35.936Z,1.23
2023-04-15T05:59:35.932Z,1.16
2023-04-15T06:00:35.938Z,1.23
2023-04-15T06:01:35.937Z,1.18
2023-04-15T06:02:36.022Z,1.17
2023-04-15T06:03:36.064Z,1.24
2023-04-15T06:04:36.039Z,1.31
2023-04-15T06:05:35.911Z,1.27
2023-04-15T06:06:35.892Z,1.26
2023-04-15T06:07:35.880Z,1.24
2023-04-15T06:08:35.881Z,1.27
2023-04-15T06:09:35.889Z,1.22
2023-04-15T06:10:35.851Z,1.13
2023-04-15T06:11:35.864Z,1.11
2023-04-15T06:12:35.863Z,1.10
2023-04-15T06:13:35.836Z,1.17
2023-04-15T06:14:35.858Z,1.09
2023-04-15T06:15:35.814Z,1.08
2023-04-15T06:16:35.868Z,1.12
2023-04-15T06:17:35.872Z,1.10
2023-04-15T06:18:35.802Z,1.15
2023-04-15T06:19:35.799Z,1.12
2023-04-15T06:20:35.795Z,1.06
2023-04-15T06:21:35.784Z,1.03
2023-04-15T06:22:35.772Z,1.12
2023-04-15T06:23:35.775Z,1.12
2023-04-15T06:24:35.769Z,1.23
2023-04-15T06:25:35.746Z,1.28
2023-04-15T06:26:35.737Z,1.23
2023-04-15T06:27:35.730Z,1.28
2023-04-15T06:28:35.735Z,1.27
2023-04-15T06:29:35.738Z,1.24
2023-04-15T06:30:35.722Z,1.27
2023-04-15T06:31:35.725Z,1.26
2023-04-15T06:32:35.738Z,1.20
2023-04-15T06:33:35.703Z,1.18
2023-04-15T06:34:35.721Z,1.16
2023-04-15T06:35:35.749Z,1.28
2023-04-15T06:36:35.758Z,1.30
2023-04-15T06:37:35.771Z,1.34
2023-04-15T06:38:35.813Z,1.35
2023-04-15T06:39:35.841Z,1.28
2023-04-15T06:40:35.848Z,1.28
2023-04-15T06:41:35.885Z,1.21
2023-04-15T06:42:35.914Z,1.32
2023-04-15T06:43:35.930Z,1.28
2023-04-15T06:44:35.929Z,1.34
2023-04-15T06:45:35.990Z,1.30
2023-04-15T06:46:35.988Z,1.29
2023-04-15T06:47:36.012Z,1.23
2023-04-15T06:48:36.022Z,1.22
2023-04-15T06:49:36.058Z,1.16
2023-04-15T06:50:36.069Z,1.13
2023-04-15T06:51:36.087Z,1.03
2023-04-15T06:52:36.138Z,1.14
2023-04-15T06:53:36.142Z,1.19
2023-04-15T06:54:36.169Z,1.21
2023-04-15T06:55:36.178Z,1.15
2023-04-15T06:56:36.215Z,1.15
2023-04-15T06:57:36.220Z,1.12
2023-04-15T06:58:36.270Z,1.07
2023-04-15T06:59:36.272Z,1.22
2023-04-15T07:00:36.314Z,1.16
2023-04-15T07:01:36.665Z,1.07
2023-04-15T07:02:36.514Z,1.21
2023-04-15T07:03:36.375Z,1.09
2023-04-15T07:04:36.461Z,1.13
2023-04-15T07:05:36.420Z,1.17
2023-04-15T07:06:36.442Z,1.19
2023-04-15T07:07:36.502Z,1.17
2023-04-15T07:08:36.494Z,1.18
2023-04-15T07:09:36.532Z,1.05
2023-04-15T07:10:36.563Z,1.04
2023-04-15T07:11:36.570Z,1.09
2023-04-15T07:12:36.593Z,1.07
2023-04-15T07:13:36.602Z,1.01
2023-04-15T07:14:36.631Z,1.02
2023-04-15T07:15:36.668Z,1.07
2023-04-15T07:16:36.704Z,1.03
2023-04-15T07:17:36.728Z,0.98
2023-04-15T07:18:36.715Z,1.04
2023-04-15T07:19:36.754Z,1.01
2023-04-15T07:20:36.776Z,1.04
2023-04-15T07:21:36.796Z,0.90
2023-04-15T07:22:36.802Z,0.95
2023-04-15T07:23:36.833Z,0.99
2023-04-15T07:24:36.849Z,0.95
2023-04-15T07:25:36.863Z,0.99
2023-04-15T07:26:36.903Z,0.90
2023-04-15T07:27:36.926Z,0.89
2023-04-15T07:28:36.927Z,0.97
2023-04-15T07:29:36.938Z,0.91
2023-04-15T07:30:37.008Z,0.90
2023-04-15T07:31:37.138Z,0.96
2023-04-15T07:32:37.046Z,0.92
2023-04-15T07:33:37.013Z,0.97
2023-04-15T07:34:37.064Z,0.94
2023-04-15T07:35:37.089Z,1.00
2023-04-15T07:36:37.107Z,0.99
2023-04-15T07:37:37.124Z,0.94
2023-04-15T07:38:37.120Z,0.93
2023-04-15T07:39:37.143Z,0.90
2023-04-15T07:40:37.182Z,1.02
2023-04-15T07:41:37.181Z,0.93
2023-04-15T07:42:38.565Z,1.07
2023-04-15T07:43:37.183Z,1.07
2023-04-15T07:44:37.196Z,1.14
2023-04-15T07:45:37.182Z,1.12
2023-04-15T07:46:37.251Z,1.15
2023-04-15T07:47:37.219Z,1.09
2023-04-15T07:48:37.684Z,1.15
2023-04-15T07:49:37.131Z,1.14
2023-04-15T07:50:37.142Z,1.12
2023-04-15T07:51:37.133Z,1.16
2023-04-15T07:52:37.135Z,1.17
2023-04-15T07:53:37.107Z,1.13
2023-04-15T07:54:37.111Z,1.19
2023-04-15T07:55:37.105Z,1.14
2023-04-15T07:56:37.091Z,1.26
2023-04-15T07:57:37.106Z,1.30
2023-04-15T07:58:37.079Z,1.29
2023-04-15T07:59:37.086Z,1.34
2023-04-15T08:00:37.065Z,1.27
2023-04-15T08:01:37.067Z,1.34
2023-04-15T08:02:38.300Z,1.35
2023-04-15T08:03:37.137Z,1.35
2023-04-15T08:04:37.262Z,1.35
2023-04-15T08:05:37.050Z,1.26
2023-04-15T08:06:37.028Z,1.32
2023-04-15T08:07:37.029Z,1.28
2023-04-15T08:08:37.008Z,1.24
2023-04-15T08:09:36.999Z,1.24
2023-04-15T08:10:36.999Z,1.34
2023-04-15T08:11:36.987Z,1.33
2023-04-15T08:12:37.004Z,1.27
2023-04-15T08:13:36.988Z,1.25
2023-04-15T08:14:36.962Z,1.23
2023-04-15T08:15:36.962Z,1.21
2023-04-15T08:16:37.060Z,1.28
2023-04-15T08:17:36.982Z,1.21
2023-04-15T08:18:36.953Z,1.21
2023-04-15T08:19:36.933Z,1.25
2023-04-15T08:20:36.939Z,1.25
2023-04-15T08:21:36.920Z,1.27
2023-04-15T08:22:36.923Z,1.26
2023-04-15T08:23:36.908Z,1.25
2023-04-15T08:24:36.891Z,1.26
2023-04-15T08:25:36.886Z,1.26
2023-04-15T08:26:36.892Z,1.19
2023-04-15T08:27:36.888Z,1.20
2023-04-15T08:28:36.935Z,1.22
2023-04-15T08:29:36.971Z,1.19
2023-04-15T08:30:36.985Z,1.19
2023-04-15T08:31:37.055Z,1.21
2023-04-15T08:32:37.002Z,1.15
2023-04-15T08:33:36.983Z,1.15
2023-04-15T08:34:36.967Z,1.16
2023-04-15T08:35:36.968Z,1.13
2023-04-15T08:36:36.962Z,1.12
2023-04-15T08:37:36.961Z,1.11
2023-04-15T08:38:36.979Z,1.05
2023-04-15T08:39:36.971Z,1.02
2023-04-15T08:40:36.994Z,0.95
2023-04-15T08:41:37.022Z,0.93
2023-04-15T08:42:37.025Z,0.93
2023-04-15T08:43:37.065Z,0.92
2023-04-15T08:44:37.131Z,0.83
2023-04-15T08:45:37.158Z,0.88
2023-04-15T08:46:37.272Z,0.80
2023-04-15T08:47:37.320Z,0.72
2023-04-15T08:48:37.320Z,0.70
2023-04-15T08:49:37.374Z,0.78
2023-04-15T08:50:37.437Z,0.69
2023-04-15T08:51:37.491Z,0.71
2023-04-15T08:52:37.562Z,0.72
2023-04-15T08:53:37.615Z,0.73
2023-04-15T08:54:37.661Z,0.79
2023-04-15T08:55:37.715Z,0.71
2023-04-15T08:56:37.872Z,0.77
2023-04-15T08:57:37.842Z,0.72
2023-04-15T08:58:37.887Z,0.78
2023-04-15T08:59:37.936Z,0.72
2023-04-15T09:00:37.997Z,0.80
2023-04-15T09:01:38.315Z,0.80
2023-04-15T09:02:38.202Z,0.79
2023-04-15T09:03:38.210Z,0.79
2023-04-15T09:04:38.189Z,0.78
2023-04-15T09:05:38.231Z,0.82
2023-04-15T09:06:38.285Z,0.81
2023-04-15T09:07:38.345Z,0.77
2023-04-15T09:08:38.385Z,0.80
2023-04-15T09:09:38.428Z,0.80
2023-04-15T09:10:38.509Z,0.80
2023-04-15T09:11:38.561Z,0.76
2023-04-15T09:12:38.577Z,0.75
2023-04-15T09:13:38.628Z,0.76
2023-04-15T09:14:38.678Z,0.74
2023-04-15T09:15:38.710Z,0.81
2023-04-15T09:16:38.810Z,0.81
2023-04-15T09:17:38.848Z,0.78
2023-04-15T09:18:38.864Z,0.76
2023-04-15T09:19:38.886Z,0.74
2023-04-15T09:20:38.917Z,0.74
2023-04-15T09:21:38.962Z,0.73
2023-04-15T09:22:38.995Z,0.73
2023-04-15T09:23:39.034Z,0.75
2023-04-15T09:24:39.080Z,0.69
2023-04-15T09:25:39.101Z,0.70
2023-04-15T09:26:39.137Z,0.70
2023-04-15T09:27:39.153Z,0.73
2023-04-15T09:28:39.182Z,0.68
2023-04-15T09:29:39.215Z,0.68
2023-04-15T09:30:39.298Z,0.66
2023-04-15T09:31:39.255Z,0.67
2023-04-15T09:32:39.301Z,0.67
2023-04-15T09:33:39.308Z,0.66
2023-04-15T09:34:39.347Z,0.68
2023-04-15T09:35:39.357Z,0.69
2023-04-15T09:36:39.373Z,0.71
2023-04-15T09:37:39.381Z,0.72
2023-04-15T09:38:39.418Z,0.72
2023-04-15T09:39:39.427Z,0.79
2023-04-15T09:40:39.416Z,0.78
2023-04-15T09:41:39.437Z,0.77
2023-04-15T09:42:39.506Z,0.78
2023-04-15T09:43:39.483Z,0.78
2023-04-15T09:44:39.488Z,0.76
2023-04-15T09:45:39.515Z,0.76
2023-04-15T09:46:39.511Z,0.75
2023-04-15T09:47:39.592Z,0.75
2023-04-15T09:48:39.521Z,0.76
2023-04-15T09:49:39.597Z,0.80
2023-04-15T09:50:39.555Z,0.77
2023-04-15T09:51:39.543Z,0.80
2023-04-15T09:52:39.556Z,0.77
2023-04-15T09:53:39.547Z,0.78
2023-04-15T09:54:39.572Z,0.77
2023-04-15T09:55:39.569Z,0.74
2023-04-15T09:56:39.560Z,0.74
2023-04-15T09:57:39.551Z,0.71
2023-04-15T09:58:39.556Z,0.72
2023-04-15T09:59:39.563Z,0.71
2023-04-15T10:00:39.568Z,0.73
2023-04-15T10:01:39.570Z,0.74
2023-04-15T10:02:39.665Z,0.69
2023-04-15T10:03:39.707Z,0.71
2023-04-15T10:04:39.571Z,0.72
2023-04-15T10:05:39.575Z,0.72
2023-04-15T10:06:39.589Z,0.71
2023-04-15T10:07:39.568Z,0.66
2023-04-15T10:08:39.588Z,0.67
2023-04-15T10:09:39.680Z,0.70
2023-04-15T10:10:39.618Z,0.67
2023-04-15T10:11:39.597Z,0.72
2023-04-15T10:12:39.595Z,0.71
2023-04-15T10:13:39.593Z,0.67
2023-04-15T10:14:39.601Z,0.65
2023-04-15T10:15:39.612Z,0.66
2023-04-15T10:16:39.613Z,0.65
2023-04-15T10:17:39.611Z,0.67
2023-04-15T10:18:39.619Z,0.71
2023-04-15T10:19:39.626Z,0.71
2023-04-15T10:20:39.616Z,0.69
2023-04-15T10:21:39.607Z,0.66
2023-04-15T10:22:39.623Z,0.68
2023-04-15T10:23:39.608Z,0.65
2023-04-15T10:24:39.602Z,0.65
2023-04-15T10:25:39.609Z,0.64
2023-04-15T10:26:39.631Z,0.63
2023-04-15T10:27:39.598Z,0.64
2023-04-15T10:28:39.593Z,0.63
2023-04-15T10:29:39.612Z,0.63
2023-04-15T10:30:39.587Z,0.65
2023-04-15T10:31:39.626Z,0.62
2023-04-15T10:32:39.620Z,0.60
2023-04-15T10:33:39.617Z,0.62
2023-04-15T10:34:39.615Z,0.61
2023-04-15T10:35:39.606Z,0.58
2023-04-15T10:36:39.621Z,0.60
2023-04-15T10:37:39.601Z,0.59
2023-04-15T10:38:39.601Z,0.59
2023-04-15T10:39:39.624Z,0.60
2023-04-15T10:40:39.631Z,0.61
2023-04-15T10:41:39.612Z,0.60
2023-04-15T10:42:39.613Z,0.59
2023-04-15T10:43:39.633Z,0.61
2023-04-15T10:44:39.627Z,0.57
2023-04-15T10:45:40.354Z,0.60
2023-04-15T10:46:39.696Z,0.58
2023-04-15T10:47:39.683Z,0.56
2023-04-15T10:48:39.639Z,0.60
2023-04-15T10:49:39.636Z,0.59
2023-04-15T10:50:39.632Z,0.54
2023-04-15T10:51:39.663Z,0.55
2023-04-15T10:52:39.652Z,0.54
2023-04-15T10:53:39.637Z,0.52
2023-04-15T10:54:39.705Z,0.54
2023-04-15T10:55:39.666Z,0.58
2023-04-15T10:56:39.658Z,0.59
2023-04-15T10:57:39.672Z,0.53
2023-04-15T10:58:39.669Z,0.54
2023-04-15T10:59:39.678Z,0.56
2023-04-15T11:00:39.672Z,0.57
2023-04-15T11:01:39.700Z,0.53
2023-04-15T11:02:39.884Z,0.58
2023-04-15T11:03:39.925Z,0.55
2023-04-15T11:04:41.793Z,0.56
2023-04-15T11:05:39.703Z,0.55
2023-04-15T11:06:39.677Z,0.57
2023-04-15T11:07:39.669Z,0.50
2023-04-15T11:08:39.670Z,0.51
2023-04-15T11:09:39.686Z,0.55
2023-04-15T11:10:39.646Z,0.53
2023-04-15T11:11:39.647Z,0.57
2023-04-15T11:12:39.643Z,0.59
2023-04-15T11:13:39.620Z,0.56
2023-04-15T11:14:39.628Z,0.57
2023-04-15T11:15:39.608Z,0.58
2023-04-15T11:16:39.640Z,0.60
2023-04-15T11:17:39.626Z,0.54
2023-04-15T11:18:39.600Z,0.58
2023-04-15T11:19:39.596Z,0.56
2023-04-15T11:20:39.611Z,0.58
2023-04-15T11:21:39.559Z,0.61
2023-04-15T11:22:39.568Z,0.62
2023-04-15T11:23:39.548Z,0.64
2023-04-15T11:24:39.550Z,0.64
2023-04-15T11:25:39.547Z,0.61
2023-04-15T11:26:39.542Z,0.56
2023-04-15T11:27:39.517Z,0.60
2023-04-15T11:28:39.536Z,0.60
2023-04-15T11:29:39.519Z,0.67
2023-04-15T11:30:39.520Z,0.68
2023-04-15T11:31:39.523Z,0.65
2023-04-15T11:32:39.497Z,0.67
2023-04-15T11:33:39.495Z,0.66
2023-04-15T11:34:39.470Z,0.62
2023-04-15T11:35:39.467Z,0.62
2023-04-15T11:36:39.458Z,0.65
2023-04-15T11:37:39.466Z,0.69
2023-04-15T11:38:39.436Z,0.68
2023-04-15T11:39:39.442Z,0.69
2023-04-15T11:40:39.450Z,0.73
2023-04-15T11:41:39.430Z,0.69
2023-04-15T11:42:49.169Z,0.74
2023-04-15T11:43:40.432Z,0.73
2023-04-15T11:44:39.401Z,0.70
2023-04-15T11:45:39.424Z,0.69
2023-04-15T11:46:39.410Z,0.72
2023-04-15T11:47:39.419Z,0.71
2023-04-15T11:48:39.370Z,0.72
2023-04-15T11:49:39.360Z,0.74
2023-04-15T11:50:39.398Z,0.77
2023-04-15T11:51:39.360Z,0.73
2023-04-15T11:52:39.357Z,0.70
2023-04-15T11:53:39.350Z,0.71
2023-04-15T11:54:39.332Z,0.72
2023-04-15T11:55:39.349Z,0.65
2023-04-15T11:56:39.330Z,0.68
2023-04-15T11:57:39.336Z,0.68
2023-04-15T11:58:39.402Z,0.69
2023-04-15T11:59:45.404Z,0.79
2023-04-15T12:00:40.290Z,0.74
2023-04-15T12:01:39.306Z,0.74
2023-04-15T12:02:39.367Z,0.71
2023-04-15T12:03:39.382Z,0.66
2023-04-15T12:04:39.378Z,0.75
2023-04-15T12:05:39.274Z,0.77
2023-04-15T12:06:39.319Z,0.76
2023-04-15T12:07:39.233Z,0.73
2023-04-15T12:08:39.246Z,0.72
2023-04-15T12:09:39.235Z,0.77
2023-04-15T12:10:39.215Z,0.74
2023-04-15T12:11:39.205Z,0.66
2023-04-15T12:12:39.217Z,0.65
2023-04-15T12:13:39.198Z,0.72
2023-04-15T12:14:39.209Z,0.73
2023-04-15T12:15:39.294Z,0.77
2023-04-15T12:16:48.271Z,0.63
2023-04-15T12:17:52.146Z,0.64
2023-04-15T12:18:40.162Z,0.64
2023-04-15T12:19:39.148Z,0.65
2023-04-15T12:20:39.162Z,0.67
2023-04-15T12:21:39.170Z,0.68
2023-04-15T12:22:39.154Z,0.65
2023-04-15T12:23:39.131Z,0.58
2023-04-15T12:24:39.115Z,0.66
2023-04-15T12:25:39.133Z,0.62
2023-04-15T12:26:39.118Z,0.58
2023-04-15T12:27:39.112Z,0.56
2023-04-15T12:28:39.133Z,0.59
2023-04-15T12:29:39.122Z,0.57
2023-04-15T12:30:39.101Z,0.59
2023-04-15T12:31:39.202Z,0.65
2023-04-15T12:32:39.976Z,0.62
2023-04-15T12:33:39.085Z,0.64
2023-04-15T12:34:39.088Z,0.61
2023-04-15T12:35:39.102Z,0.62
2023-04-15T12:36:39.106Z,0.62
2023-04-15T12:37:39.128Z,0.62
2023-04-15T12:38:39.149Z,0.59
2023-04-15T12:39:39.149Z,0.63
2023-04-15T12:40:39.160Z,0.64
2023-04-15T12:41:39.187Z,0.66
2023-04-15T12:42:39.209Z,0.64
2023-04-15T12:43:39.227Z,0.63
2023-04-15T12:44:39.250Z,0.58
2023-04-15T12:45:39.257Z,0.61
2023-04-15T12:46:39.306Z,0.63
2023-04-15T12:47:39.306Z,0.62
2023-04-15T12:48:39.309Z,0.61
2023-04-15T12:49:39.323Z,0.61
2023-04-15T12:50:39.352Z,0.68
2023-04-15T12:51:39.359Z,0.71
2023-04-15T12:52:39.367Z,0.69
2023-04-15T12:53:39.408Z,0.64
2023-04-15T12:54:39.416Z,0.66
2023-04-15T12:55:39.451Z,0.72
2023-04-15T12:56:39.514Z,0.76
2023-04-15T12:57:39.502Z,0.76
2023-04-15T12:58:39.500Z,0.79
2023-04-15T12:59:39.536Z,0.73
2023-04-15T13:00:39.576Z,0.77
2023-04-15T13:01:39.690Z,0.76
2023-04-15T13:02:39.961Z,0.74
2023-04-15T13:03:39.847Z,0.75
2023-04-15T13:04:39.708Z,0.77
2023-04-15T13:05:39.726Z,0.76
2023-04-15T13:06:39.738Z,0.76
2023-04-15T13:07:39.763Z,0.71
2023-04-15T13:08:42.671Z,0.77
2023-04-15T13:09:40.763Z,0.77
2023-04-15T13:10:39.760Z,0.78
2023-04-15T13:11:39.750Z,0.78
2023-04-15T13:12:39.758Z,0.76
2023-04-15T13:13:39.751Z,0.75
2023-04-15T13:14:39.727Z,0.77
2023-04-15T13:15:39.745Z,0.71
2023-04-15T13:16:39.861Z,0.71
2023-04-15T13:17:39.781Z,0.70
2023-04-15T13:18:39.701Z,0.76